createdAt,value
2023-04-02T00:00:43.305Z,48.66
2023-04-02T00:01:43.333Z,48.34
2023-04-02T00:02:43.302Z,52.85
2023-04-02T00:03:43.330Z,48.02
2023-04-02T00:04:43.277Z,48.66
2023-04-02T00:05:43.246Z,47.70
2023-04-02T00:06:43.257Z,52.37
2023-04-02T00:07:43.249Z,48.82
2023-04-02T00:08:43.230Z,50.27
2023-04-02T00:09:43.214Z,50.11
2023-04-02T00:10:43.211Z,50.27
2023-04-02T00:11:43.215Z,48.98
2023-04-02T00:12:43.173Z,49.63
2023-04-02T00:13:43.197Z,52.05
2023-04-02T00:14:43.166Z,51.40
2023-04-02T00:15:43.185Z,48.98
2023-04-02T00:16:43.195Z,48.98
2023-04-02T00:17:43.151Z,49.47
2023-04-02T00:18:43.148Z,50.27
2023-04-02T00:19:43.112Z,46.08
2023-04-02T00:20:43.129Z,45.76
2023-04-02T00:21:43.106Z,47.05
2023-04-02T00:22:43.092Z,47.05
2023-04-02T00:23:43.100Z,47.53
2023-04-02T00:24:43.081Z,47.05
2023-04-02T00:25:43.147Z,48.02
2023-04-02T00:26:43.047Z,48.02
2023-04-02T00:27:43.060Z,48.02
2023-04-02T00:28:43.026Z,48.82
2023-04-02T00:29:43.047Z,51.72
2023-04-02T00:30:43.038Z,51.40
2023-04-02T00:31:43.041Z,49.31
2023-04-02T00:32:43.010Z,48.98
2023-04-02T00:33:42.976Z,50.60
2023-04-02T00:34:42.987Z,47.21
2023-04-02T00:35:43.002Z,47.21
2023-04-02T00:36:42.930Z,48.82
2023-04-02T00:37:42.952Z,48.18
2023-04-02T00:38:42.913Z,46.89
2023-04-02T00:39:42.906Z,46.08
2023-04-02T00:40:42.889Z,46.41
2023-04-02T00:41:42.890Z,49.15
2023-04-02T00:42:42.879Z,47.05
2023-04-02T00:43:42.875Z,47.37
2023-04-02T00:44:42.883Z,49.47
2023-04-02T00:45:42.859Z,48.34
2023-04-02T00:46:42.844Z,46.89
2023-04-02T00:47:42.879Z,48.82
2023-04-02T00:48:42.841Z,47.37
2023-04-02T00:49:42.819Z,50.43
2023-04-02T00:50:42.811Z,50.11
2023-04-02T00:51:42.792Z,48.50
2023-04-02T00:52:42.805Z,50.43
2023-04-02T00:53:42.778Z,49.63
2023-04-02T00:54:42.759Z,48.82
2023-04-02T00:55:42.770Z,52.53
2023-04-02T00:56:42.752Z,48.66
2023-04-02T00:57:42.742Z,48.98
2023-04-02T00:58:42.725Z,49.95
2023-04-02T00:59:42.719Z,52.37
2023-04-02T01:00:42.723Z,48.02
2023-04-02T01:01:42.898Z,48.02
2023-04-02T01:02:42.830Z,48.82
2023-04-02T01:03:42.873Z,47.86
2023-04-02T01:04:42.653Z,48.02
2023-04-02T01:05:42.647Z,52.69
2023-04-02T01:06:42.641Z,51.56
2023-04-02T01:07:42.621Z,48.50
2023-04-02T01:08:42.629Z,47.53
2023-04-02T01:09:42.621Z,47.70
2023-04-02T01:10:42.624Z,48.18
2023-04-02T01:11:42.600Z,48.18
2023-04-02T01:12:42.568Z,51.40
2023-04-02T01:13:42.565Z,49.15
2023-04-02T01:14:42.552Z,50.27
2023-04-02T01:15:42.546Z,48.82
2023-04-02T01:16:42.563Z,48.82
2023-04-02T01:17:42.604Z,47.86
2023-04-02T01:18:42.517Z,50.76
2023-04-02T01:19:42.500Z,47.86
2023-04-02T01:20:42.504Z,48.66
2023-04-02T01:21:42.544Z,51.08
2023-04-02T01:22:42.482Z,49.47
2023-04-02T01:23:42.457Z,50.43
2023-04-02T01:24:42.455Z,50.11
2023-04-02T01:25:42.459Z,48.98
2023-04-02T01:26:42.436Z,49.95
2023-04-02T01:27:42.423Z,47.70
2023-04-02T01:28:42.395Z,47.53
2023-04-02T01:29:42.410Z,48.66
2023-04-02T01:30:42.382Z,54.14
2023-04-02T01:31:42.441Z,49.95
2023-04-02T01:32:42.393Z,49.95
2023-04-02T01:33:42.369Z,48.98
2023-04-02T01:34:42.339Z,48.82
2023-04-02T01:35:42.385Z,48.50
2023-04-02T01:36:42.336Z,49.95
2023-04-02T01:37:42.300Z,49.79
2023-04-02T01:38:43.302Z,50.11
2023-04-02T01:39:42.301Z,49.79
2023-04-02T01:40:42.278Z,50.11
2023-04-02T01:41:42.285Z,47.53
2023-04-02T01:42:42.282Z,47.86
2023-04-02T01:43:42.260Z,47.37
2023-04-02T01:44:42.250Z,48.66
2023-04-02T01:45:42.227Z,48.66
2023-04-02T01:46:42.283Z,47.05
2023-04-02T01:47:42.253Z,46.73
2023-04-02T01:48:42.189Z,47.70
2023-04-02T01:49:42.210Z,47.53
2023-04-02T01:50:42.164Z,46.25
2023-04-02T01:51:42.162Z,47.53
2023-04-02T01:52:42.162Z,46.41
2023-04-02T01:53:42.128Z,46.57
2023-04-02T01:54:42.145Z,47.21
2023-04-02T01:55:42.136Z,49.15
2023-04-02T01:56:42.103Z,46.89
2023-04-02T01:57:42.108Z,47.86
2023-04-02T01:58:42.089Z,48.02
2023-04-02T01:59:42.092Z,47.05
2023-04-02T02:00:42.093Z,46.57
2023-04-02T02:01:42.057Z,48.18
2023-04-02T02:02:42.129Z,48.50
2023-04-02T02:03:42.056Z,47.86
2023-04-02T02:04:42.017Z,47.37
2023-04-02T02:05:42.021Z,46.41
2023-04-02T02:06:41.997Z,46.57
2023-04-02T02:07:41.999Z,48.98
2023-04-02T02:08:41.989Z,48.34
2023-04-02T02:09:41.970Z,48.50
2023-04-02T02:10:41.980Z,48.66
2023-04-02T02:11:41.945Z,49.31
2023-04-02T02:12:41.949Z,48.34
2023-04-02T02:13:42.252Z,48.50
2023-04-02T02:14:41.939Z,49.15
2023-04-02T02:15:41.924Z,48.18
2023-04-02T02:16:42.094Z,51.08
2023-04-02T02:17:41.970Z,46.89
2023-04-02T02:18:41.869Z,48.18
2023-04-02T02:19:41.873Z,46.57
2023-04-02T02:20:41.867Z,46.89
2023-04-02T02:21:41.869Z,48.98
2023-04-02T02:22:41.841Z,48.98
2023-04-02T02:23:41.832Z,48.50
2023-04-02T02:24:41.849Z,46.73
2023-04-02T02:25:41.833Z,48.66
2023-04-02T02:26:41.787Z,49.15
2023-04-02T02:27:41.799Z,47.86
2023-04-02T02:28:41.788Z,47.21
2023-04-02T02:29:41.783Z,46.73
2023-04-02T02:30:41.757Z,45.92
2023-04-02T02:31:41.802Z,45.76
2023-04-02T02:32:41.767Z,46.73
2023-04-02T02:33:41.742Z,47.21
2023-04-02T02:34:41.715Z,47.70
2023-04-02T02:35:41.775Z,48.82
2023-04-02T02:36:41.691Z,46.89
2023-04-02T02:37:41.704Z,46.73
2023-04-02T02:38:41.673Z,45.44
2023-04-02T02:39:41.677Z,45.60
2023-04-02T02:40:41.665Z,45.92
2023-04-02T02:41:41.652Z,46.41
2023-04-02T02:42:41.637Z,46.41
2023-04-02T02:43:41.637Z,46.25
2023-04-02T02:44:41.622Z,45.60
2023-04-02T02:45:41.650Z,46.73
2023-04-02T02:46:41.594Z,46.41
2023-04-02T02:47:41.588Z,48.66
2023-04-02T02:48:41.576Z,46.25
2023-04-02T02:49:41.584Z,46.41
2023-04-02T02:50:41.563Z,46.41
2023-04-02T02:51:41.531Z,46.73
2023-04-02T02:52:41.524Z,47.70
2023-04-02T02:53:41.519Z,51.40
2023-04-02T02:54:41.534Z,47.21
2023-04-02T02:55:41.504Z,46.73
2023-04-02T02:56:41.508Z,46.41
2023-04-02T02:57:41.488Z,44.96
2023-04-02T02:58:41.475Z,46.25
2023-04-02T02:59:41.463Z,47.21
2023-04-02T03:00:41.474Z,44.15
2023-04-02T03:01:41.476Z,45.44
2023-04-02T03:02:41.574Z,49.47
2023-04-02T03:03:41.585Z,46.25
2023-04-02T03:04:41.440Z,46.73
2023-04-02T03:05:41.462Z,43.51
2023-04-02T03:06:41.392Z,45.12
2023-04-02T03:07:41.398Z,48.82
2023-04-02T03:08:41.365Z,46.73
2023-04-02T03:09:41.353Z,45.76
2023-04-02T03:10:41.344Z,46.25
2023-04-02T03:11:41.345Z,45.44
2023-04-02T03:12:41.357Z,47.05
2023-04-02T03:13:41.324Z,48.50
2023-04-02T03:14:41.303Z,49.15
2023-04-02T03:15:41.359Z,46.41
2023-04-02T03:16:41.314Z,48.02
2023-04-02T03:17:41.319Z,47.53
2023-04-02T03:18:41.276Z,46.08
2023-04-02T03:19:41.266Z,46.73
2023-04-02T03:20:41.272Z,47.86
2023-04-02T03:21:41.242Z,46.25
2023-04-02T03:22:41.224Z,46.73
2023-04-02T03:23:41.246Z,46.57
2023-04-02T03:24:41.203Z,48.50
2023-04-02T03:25:41.195Z,49.63
2023-04-02T03:26:41.177Z,48.18
2023-04-02T03:27:41.281Z,44.31
2023-04-02T03:28:41.168Z,44.96
2023-04-02T03:29:41.159Z,47.21
2023-04-02T03:31:13.065Z,47.86
2023-04-02T03:31:41.145Z,45.60
2023-04-02T03:32:41.193Z,48.98
2023-04-02T03:33:41.113Z,44.15
2023-04-02T03:34:41.099Z,47.05
2023-04-02T03:35:41.113Z,45.12
2023-04-02T03:36:41.112Z,45.44
2023-04-02T03:37:41.068Z,44.79
2023-04-02T03:38:41.077Z,46.73
2023-04-02T03:39:41.063Z,46.73
2023-04-02T03:40:41.069Z,46.73
2023-04-02T03:41:41.021Z,46.08
2023-04-02T03:42:41.027Z,46.57
2023-04-02T03:43:41.006Z,48.02
2023-04-02T03:44:40.989Z,48.50
2023-04-02T03:45:41.027Z,47.86
2023-04-02T03:46:41.025Z,46.41
2023-04-02T03:47:40.997Z,46.08
2023-04-02T03:48:40.978Z,47.53
2023-04-02T03:49:40.950Z,46.08
2023-04-02T03:50:40.938Z,44.96
2023-04-02T03:51:40.939Z,46.73
2023-04-02T03:52:40.925Z,49.31
2023-04-02T03:53:40.895Z,45.28
2023-04-02T03:54:40.921Z,44.63
2023-04-02T03:55:41.914Z,45.12
2023-04-02T03:56:40.882Z,46.25
2023-04-02T03:57:40.886Z,44.63
2023-04-02T03:58:40.870Z,45.12
2023-04-02T03:59:40.854Z,45.76
2023-04-02T04:00:40.820Z,48.82
2023-04-02T04:01:40.849Z,47.53
2023-04-02T04:02:40.856Z,49.31
2023-04-02T04:03:40.856Z,47.05
2023-04-02T04:04:40.792Z,51.08
2023-04-02T04:05:40.774Z,48.34
2023-04-02T04:06:40.775Z,47.70
2023-04-02T04:07:40.775Z,46.25
2023-04-02T04:08:40.730Z,45.92
2023-04-02T04:09:40.758Z,46.41
2023-04-02T04:10:40.725Z,48.18
2023-04-02T04:11:40.718Z,50.43
2023-04-02T04:12:40.712Z,50.60
2023-04-02T04:13:40.689Z,46.73
2023-04-02T04:14:41.360Z,45.12
2023-04-02T04:15:40.668Z,45.44
2023-04-02T04:16:40.735Z,48.18
2023-04-02T04:17:40.699Z,46.73
2023-04-02T04:18:40.666Z,46.25
2023-04-02T04:19:40.637Z,49.95
2023-04-02T04:20:40.602Z,48.98
2023-04-02T04:21:40.605Z,46.57
2023-04-02T04:22:40.620Z,46.25
2023-04-02T04:23:40.604Z,49.31
2023-04-02T04:24:40.557Z,46.08
2023-04-02T04:25:40.602Z,47.86
2023-04-02T04:26:40.550Z,48.98
2023-04-02T04:27:40.543Z,46.57
2023-04-02T04:28:40.571Z,46.73
2023-04-02T04:29:40.526Z,46.73
2023-04-02T04:30:40.499Z,45.92
2023-04-02T04:31:40.536Z,45.76
2023-04-02T04:32:40.568Z,45.44
2023-04-02T04:33:40.496Z,44.96
2023-04-02T04:34:40.464Z,49.47
2023-04-02T04:35:40.629Z,45.76
2023-04-02T04:36:40.482Z,47.05
2023-04-02T04:37:42.682Z,49.47
2023-04-02T04:38:40.416Z,48.98
2023-04-02T04:39:40.419Z,51.08
2023-04-02T04:40:40.455Z,46.08
2023-04-02T04:41:40.377Z,46.25
2023-04-02T04:42:40.408Z,48.18
2023-04-02T04:43:40.379Z,48.50
2023-04-02T04:44:40.363Z,49.47
2023-04-02T04:45:40.417Z,50.60
2023-04-02T04:46:40.373Z,49.79
2023-04-02T04:47:40.388Z,45.76
2023-04-02T04:48:40.306Z,47.05
2023-04-02T04:49:40.334Z,48.02
2023-04-02T04:50:40.317Z,47.53
2023-04-02T04:51:40.300Z,47.37
2023-04-02T04:52:40.318Z,44.15
2023-04-02T04:53:40.273Z,50.43
2023-04-02T04:54:40.247Z,45.28
2023-04-02T04:55:40.293Z,49.15
2023-04-02T04:56:40.287Z,46.08
2023-04-02T04:57:40.210Z,44.47
2023-04-02T04:58:40.255Z,46.41
2023-04-02T04:59:40.221Z,45.60
2023-04-02T05:00:41.195Z,44.96
2023-04-02T05:01:40.199Z,45.76
2023-04-02T05:02:40.214Z,46.57
2023-04-02T05:03:40.184Z,51.24
2023-04-02T05:04:40.197Z,46.57
2023-04-02T05:05:40.142Z,47.05
2023-04-02T05:06:40.148Z,46.73
2023-04-02T05:07:40.132Z,44.79
2023-04-02T05:08:40.127Z,47.21
2023-04-02T05:09:40.107Z,48.66
2023-04-02T05:10:40.110Z,53.50
2023-04-02T05:11:40.086Z,47.86
2023-04-02T05:12:40.056Z,49.31
2023-04-02T05:13:40.081Z,48.50
2023-04-02T05:14:40.066Z,46.41
2023-04-02T05:15:40.123Z,45.12
2023-04-02T05:16:40.074Z,45.60
2023-04-02T05:17:40.077Z,47.21
2023-04-02T05:18:40.009Z,48.66
2023-04-02T05:19:40.000Z,50.11
2023-04-02T05:20:40.002Z,47.86
2023-04-02T05:21:39.973Z,45.28
2023-04-02T05:22:41.388Z,45.44
2023-04-02T05:23:39.965Z,50.60
2023-04-02T05:24:39.925Z,47.05
2023-04-02T05:25:39.941Z,44.79
2023-04-02T05:26:39.951Z,47.53
2023-04-02T05:27:39.922Z,47.05
2023-04-02T05:28:39.880Z,46.25
2023-04-02T05:29:39.900Z,45.92
2023-04-02T05:30:39.864Z,48.98
2023-04-02T05:31:39.955Z,48.34
2023-04-02T05:32:39.937Z,47.37
2023-04-02T05:33:39.856Z,45.76
2023-04-02T05:34:39.839Z,45.92
2023-04-02T05:35:39.880Z,44.96
2023-04-02T05:36:39.825Z,48.02
2023-04-02T05:37:39.842Z,44.96
2023-04-02T05:38:39.789Z,44.79
2023-04-02T05:39:39.786Z,51.40
2023-04-02T05:40:39.783Z,53.01
2023-04-02T05:41:39.760Z,46.89
2023-04-02T05:42:39.743Z,49.15
2023-04-02T05:43:39.769Z,47.70
2023-04-02T05:44:39.765Z,49.15
2023-04-02T05:45:39.698Z,46.89
2023-04-02T05:46:39.760Z,49.31
2023-04-02T05:47:39.750Z,48.34
2023-04-02T05:48:39.696Z,50.60
2023-04-02T05:49:39.677Z,49.31
2023-04-02T05:50:39.698Z,52.69
2023-04-02T05:51:39.664Z,48.82
2023-04-02T05:52:39.631Z,47.37
2023-04-02T05:53:40.657Z,48.18
2023-04-02T05:54:39.615Z,52.21
2023-04-02T05:55:39.634Z,51.56
2023-04-02T05:56:39.622Z,51.40
2023-04-02T05:57:46.754Z,47.86
2023-04-02T05:59:39.583Z,49.95
2023-04-02T06:00:39.593Z,49.79
2023-04-02T06:01:39.586Z,48.18
2023-04-02T06:02:39.646Z,51.88
2023-04-02T06:03:39.605Z,49.63
2023-04-02T06:04:39.522Z,50.76
2023-04-02T06:05:39.522Z,51.88
2023-04-02T06:06:39.535Z,51.72
2023-04-02T06:07:39.504Z,54.14
2023-04-02T06:08:39.518Z,55.59
2023-04-02T06:09:39.491Z,54.62
2023-04-02T06:10:39.438Z,54.46
2023-04-02T06:11:39.447Z,53.98
2023-04-02T06:12:39.449Z,54.30
2023-04-02T06:13:39.425Z,52.21
2023-04-02T06:14:39.405Z,51.56
2023-04-02T06:15:39.407Z,52.21
2023-04-02T06:16:39.479Z,53.01
2023-04-02T06:17:39.400Z,49.63
2023-04-02T06:18:39.387Z,50.60
2023-04-02T06:19:39.363Z,51.88
2023-04-02T06:20:39.341Z,56.56
2023-04-02T06:21:39.335Z,52.85
2023-04-02T06:22:39.358Z,54.62
2023-04-02T06:23:39.311Z,53.01
2023-04-02T06:24:39.297Z,52.53
2023-04-02T06:25:39.304Z,55.59
2023-04-02T06:26:39.282Z,49.47
2023-04-02T06:27:39.266Z,52.69
2023-04-02T06:28:39.274Z,49.47
2023-04-02T06:29:39.251Z,48.50
2023-04-02T06:30:39.312Z,54.79
2023-04-02T06:31:39.251Z,58.01
2023-04-02T06:32:39.287Z,52.05
2023-04-02T06:33:39.198Z,51.88
2023-04-02T06:34:39.216Z,51.40
2023-04-02T06:35:39.288Z,54.46
2023-04-02T06:36:39.176Z,49.79
2023-04-02T06:37:39.189Z,54.30
2023-04-02T06:38:39.171Z,56.72
2023-04-02T06:39:39.146Z,53.66
2023-04-02T06:40:39.131Z,52.21
2023-04-02T06:41:39.130Z,53.50
2023-04-02T06:42:39.150Z,54.14
2023-04-02T06:43:39.111Z,56.24
2023-04-02T06:44:39.099Z,54.14
2023-04-02T06:45:39.090Z,49.95
2023-04-02T06:46:39.091Z,51.08
2023-04-02T06:47:39.161Z,55.43
2023-04-02T06:48:39.044Z,49.79
2023-04-02T06:49:39.080Z,48.18
2023-04-02T06:50:39.019Z,54.30
2023-04-02T06:51:39.037Z,50.60
2023-04-02T06:52:39.030Z,48.66
2023-04-02T06:53:39.029Z,53.01
2023-04-02T06:54:39.115Z,50.27
2023-04-02T06:55:39.243Z,54.95
2023-04-02T06:56:38.998Z,53.50
2023-04-02T06:57:39.302Z,49.47
2023-04-02T06:58:38.974Z,53.50
2023-04-02T06:59:38.943Z,50.11
2023-04-02T07:00:38.942Z,49.63
2023-04-02T07:01:38.949Z,49.15
2023-04-02T07:02:38.957Z,52.21
2023-04-02T07:03:38.903Z,50.43
2023-04-02T07:04:38.900Z,52.53
2023-04-02T07:05:41.002Z,54.14
2023-04-02T07:06:38.864Z,48.66
2023-04-02T07:07:38.876Z,53.66
2023-04-02T07:08:38.863Z,51.56
2023-04-02T07:09:38.842Z,55.11
2023-04-02T07:10:38.829Z,49.15
2023-04-02T07:11:38.823Z,48.98
2023-04-02T07:12:38.845Z,52.37
2023-04-02T07:13:38.807Z,54.95
2023-04-02T07:14:38.758Z,49.79
2023-04-02T07:15:38.798Z,50.76
2023-04-02T07:16:38.788Z,54.30
2023-04-02T07:17:38.785Z,49.47
2023-04-02T07:18:38.725Z,51.08
2023-04-02T07:19:38.736Z,52.85
2023-04-02T07:20:38.734Z,53.66
2023-04-02T07:21:38.694Z,51.88
2023-04-02T07:22:38.719Z,54.46
2023-04-02T07:23:38.695Z,54.14
2023-04-02T07:24:38.684Z,49.79
2023-04-02T07:25:38.664Z,50.76
2023-04-02T07:26:38.698Z,50.76
2023-04-02T07:27:38.651Z,51.56
2023-04-02T07:28:38.614Z,52.37
2023-04-02T07:29:39.668Z,54.14
2023-04-02T07:30:38.601Z,53.01
2023-04-02T07:31:38.629Z,54.95
2023-04-02T07:32:38.677Z,54.79
2023-04-02T07:33:40.100Z,52.53
2023-04-02T07:34:38.565Z,53.33
2023-04-02T07:35:38.709Z,50.92
2023-04-02T07:36:38.562Z,52.85
2023-04-02T07:37:38.544Z,53.98
2023-04-02T07:38:38.542Z,52.53
2023-04-02T07:39:40.238Z,54.30
2023-04-02T07:40:38.506Z,56.88
2023-04-02T07:41:38.489Z,55.59
2023-04-02T07:42:38.498Z,54.95
2023-04-02T07:43:38.488Z,51.40
2023-04-02T07:44:38.457Z,52.69
2023-04-02T07:45:38.725Z,52.05
2023-04-02T07:46:38.484Z,53.01
2023-04-02T07:47:38.469Z,56.24
2023-04-02T07:48:38.414Z,53.66
2023-04-02T07:49:38.425Z,53.33
2023-04-02T07:50:38.413Z,55.27
2023-04-02T07:51:38.396Z,56.07
2023-04-02T07:52:40.347Z,51.72
2023-04-02T07:53:39.386Z,50.11
2023-04-02T07:54:38.395Z,53.98
2023-04-02T07:55:38.368Z,52.53
2023-04-02T07:56:38.365Z,53.33
2023-04-02T07:57:38.321Z,56.72
2023-04-02T07:58:39.318Z,54.46
2023-04-02T07:59:38.333Z,53.50
2023-04-02T08:00:38.302Z,53.82
2023-04-02T08:01:38.297Z,55.11
2023-04-02T08:02:38.320Z,48.34
2023-04-02T08:03:38.357Z,54.30
2023-04-02T08:04:38.520Z,54.14
2023-04-02T08:05:38.299Z,50.11
2023-04-02T08:06:38.243Z,52.37
2023-04-02T08:07:38.240Z,53.50
2023-04-02T08:08:38.209Z,55.75
2023-04-02T08:09:38.214Z,55.27
2023-04-02T08:10:38.181Z,53.01
2023-04-02T08:11:38.168Z,53.98
2023-04-02T08:12:38.186Z,54.46
2023-04-02T08:13:38.179Z,53.98
2023-04-02T08:14:38.162Z,54.46
2023-04-02T08:15:38.265Z,57.69
2023-04-02T08:16:38.219Z,55.59
2023-04-02T08:17:38.163Z,55.75
2023-04-02T08:18:38.125Z,54.14
2023-04-02T08:19:48.024Z,55.27
2023-04-02T08:20:40.090Z,56.88
2023-04-02T08:21:38.087Z,55.11
2023-04-02T08:22:38.095Z,53.17
2023-04-02T08:23:38.073Z,54.79
2023-04-02T08:24:39.016Z,54.46
2023-04-02T08:25:38.041Z,55.59
2023-04-02T08:26:38.002Z,56.72
2023-04-02T08:27:38.022Z,52.85
2023-04-02T08:28:38.038Z,53.82
2023-04-02T08:29:38.003Z,52.85
2023-04-02T08:30:37.977Z,52.05
2023-04-02T08:31:37.967Z,56.07
2023-04-02T08:32:38.122Z,54.14
2023-04-02T08:33:37.930Z,50.27
2023-04-02T08:34:37.969Z,54.62
2023-04-02T08:35:38.131Z,54.95
2023-04-02T08:36:37.926Z,54.62
2023-04-02T08:37:37.914Z,54.79
2023-04-02T08:38:37.912Z,55.91
2023-04-02T08:39:37.893Z,54.79
2023-04-02T08:40:37.862Z,53.50
2023-04-02T08:41:37.885Z,54.79
2023-04-02T08:42:37.846Z,53.66
2023-04-02T08:43:37.864Z,53.33
2023-04-02T08:44:37.870Z,51.88
2023-04-02T08:45:37.824Z,56.56
2023-04-02T08:46:37.863Z,53.33
2023-04-02T08:47:37.810Z,52.85
2023-04-02T08:48:37.809Z,52.05
2023-04-02T08:49:37.817Z,55.59
2023-04-02T08:50:37.798Z,53.01
2023-04-02T08:51:37.777Z,55.11
2023-04-02T08:52:37.783Z,50.43
2023-04-02T08:53:37.742Z,52.53
2023-04-02T08:54:37.726Z,53.66
2023-04-02T08:55:37.874Z,54.30
2023-04-02T08:56:37.716Z,54.62
2023-04-02T08:57:37.673Z,56.07
2023-04-02T08:58:37.701Z,51.56
2023-04-02T08:59:37.688Z,54.46
2023-04-02T09:00:38.023Z,51.88
2023-04-02T09:01:38.705Z,53.17
2023-04-02T09:02:37.697Z,52.53
2023-04-02T09:03:37.636Z,54.95
2023-04-02T09:04:37.639Z,56.72
2023-04-02T09:05:38.054Z,55.59
2023-04-02T09:06:37.611Z,53.82
2023-04-02T09:07:37.597Z,52.85
2023-04-02T09:08:37.619Z,50.27
2023-04-02T09:09:37.562Z,50.43
2023-04-02T09:10:37.554Z,54.46
2023-04-02T09:11:37.556Z,52.69
2023-04-02T09:12:37.553Z,53.33
2023-04-02T09:13:37.546Z,55.91
2023-04-02T09:14:37.530Z,56.56
2023-04-02T09:15:37.810Z,54.62
2023-04-02T09:16:37.479Z,53.82
2023-04-02T09:17:50.524Z,53.50
2023-04-02T09:18:39.575Z,50.92
2023-04-02T09:19:37.482Z,53.98
2023-04-02T09:20:37.443Z,54.30
2023-04-02T09:21:37.458Z,56.24
2023-04-02T09:22:37.445Z,53.01
2023-04-02T09:23:37.431Z,56.56
2023-04-02T09:24:37.392Z,57.52
2023-04-02T09:25:37.523Z,53.66
2023-04-02T09:26:37.398Z,54.79
2023-04-02T09:27:37.383Z,53.98
2023-04-02T09:28:37.353Z,53.50
2023-04-02T09:29:37.381Z,54.46
2023-04-02T09:30:37.333Z,52.53
2023-04-02T09:32:09.269Z,51.56
2023-04-02T09:32:37.397Z,55.11
2023-04-02T09:33:37.305Z,56.24
2023-04-02T09:34:37.312Z,53.98
2023-04-02T09:35:37.450Z,53.66
2023-04-02T09:36:37.307Z,55.11
2023-04-02T09:37:37.278Z,54.62
2023-04-02T09:38:37.257Z,56.24
2023-04-02T09:39:37.249Z,54.62
2023-04-02T09:40:37.251Z,52.85
2023-04-02T09:41:37.362Z,54.95
2023-04-02T09:42:37.213Z,55.11
2023-04-02T09:43:37.198Z,57.36
2023-04-02T09:44:37.233Z,51.72
2023-04-02T09:45:37.288Z,52.21
2023-04-02T09:46:37.241Z,53.17
2023-04-02T09:47:37.307Z,54.79
2023-04-02T09:48:38.201Z,54.79
2023-04-02T09:49:37.156Z,54.30
2023-04-02T09:50:37.139Z,52.53
2023-04-02T09:51:37.130Z,52.53
2023-04-02T09:52:37.103Z,48.50
2023-04-02T09:53:37.119Z,53.17
2023-04-02T09:54:37.090Z,54.14
2023-04-02T09:55:37.296Z,54.79
2023-04-02T09:56:37.085Z,53.66
2023-04-02T09:57:37.045Z,55.59
2023-04-02T09:58:38.059Z,55.11
2023-04-02T09:59:37.056Z,52.85
2023-04-02T10:00:37.020Z,53.98
2023-04-02T10:01:37.164Z,53.98
2023-04-02T10:02:37.089Z,52.05
2023-04-02T10:03:36.998Z,55.59
2023-04-02T10:04:37.022Z,56.56
2023-04-02T10:05:40.948Z,54.62
2023-04-02T10:06:38.043Z,56.88
2023-04-02T10:07:36.955Z,56.88
2023-04-02T10:08:36.954Z,54.14
2023-04-02T10:09:36.970Z,57.36
2023-04-02T10:10:37.057Z,53.66
2023-04-02T10:12:37.906Z,56.72
2023-04-02T10:13:36.891Z,58.17
2023-04-02T10:14:36.884Z,53.33
2023-04-02T10:15:37.085Z,55.11
2023-04-02T10:16:36.903Z,56.72
2023-04-02T10:17:36.880Z,55.27
2023-04-02T10:18:36.845Z,55.91
2023-04-02T10:19:36.833Z,56.40
2023-04-02T10:20:48.684Z,55.27
2023-04-02T10:21:37.810Z,54.62
2023-04-02T10:22:36.805Z,55.11
2023-04-02T10:23:36.771Z,54.62
2023-04-02T10:24:36.795Z,55.11
2023-04-02T10:25:36.980Z,54.62
2023-04-02T10:26:36.769Z,57.04
2023-04-02T10:27:36.740Z,56.40
2023-04-02T10:28:36.734Z,54.62
2023-04-02T10:29:36.725Z,55.59
2023-04-02T10:30:36.732Z,56.07
2023-04-02T10:31:36.708Z,55.43
2023-04-02T10:32:36.738Z,57.69
2023-04-02T10:33:36.673Z,53.50
2023-04-02T10:34:36.684Z,52.05
2023-04-02T10:35:36.808Z,56.07
2023-04-02T10:36:36.656Z,57.04
2023-04-02T10:37:36.661Z,53.66
2023-04-02T10:38:36.651Z,56.07
2023-04-02T10:39:36.618Z,54.62
2023-04-02T10:40:36.616Z,54.95
2023-04-02T10:41:36.609Z,53.33
2023-04-02T10:42:36.590Z,56.24
2023-04-02T10:43:36.587Z,53.17
2023-04-02T10:44:36.572Z,54.95
2023-04-02T10:45:36.882Z,54.14
2023-04-02T10:46:36.643Z,57.04
2023-04-02T10:47:36.579Z,56.88
2023-04-02T10:48:36.562Z,53.82
2023-04-02T10:49:36.609Z,53.66
2023-04-02T10:50:36.541Z,54.14
2023-04-02T10:51:36.517Z,53.50
2023-04-02T10:52:36.517Z,53.82
2023-04-02T10:53:36.532Z,55.43
2023-04-02T10:54:36.491Z,50.60
2023-04-02T10:55:36.694Z,54.62
2023-04-02T10:56:47.990Z,52.69
2023-04-02T10:57:38.506Z,55.59
2023-04-02T10:58:36.452Z,56.07
2023-04-02T10:59:36.432Z,55.91
2023-04-02T11:00:36.411Z,52.37
2023-04-02T11:01:36.411Z,56.72
2023-04-02T11:02:37.556Z,56.88
2023-04-02T11:03:36.454Z,53.01
2023-04-02T11:04:36.383Z,55.11
2023-04-02T11:05:36.568Z,54.30
2023-04-02T11:06:36.353Z,52.05
2023-04-02T11:07:36.364Z,53.98
2023-04-02T11:08:36.368Z,54.30
2023-04-02T11:09:36.320Z,56.24
2023-04-02T11:10:36.322Z,57.36
2023-04-02T11:11:36.311Z,55.91
2023-04-02T11:12:41.410Z,56.07
2023-04-02T11:13:37.318Z,56.07
2023-04-02T11:14:36.270Z,53.33
2023-04-02T11:15:36.652Z,53.33
2023-04-02T11:16:40.681Z,51.56
2023-04-02T11:17:38.302Z,54.95
2023-04-02T11:18:36.220Z,53.50
2023-04-02T11:19:36.203Z,53.82
2023-04-02T11:20:36.223Z,54.62
2023-04-02T11:21:42.229Z,55.11
2023-04-02T11:22:38.198Z,54.46
2023-04-02T11:23:36.193Z,53.98
2023-04-02T11:24:36.161Z,50.60
2023-04-02T11:25:36.468Z,52.53
2023-04-02T11:26:36.205Z,54.14
2023-04-02T11:27:36.126Z,55.11
2023-04-02T11:28:36.106Z,50.11
2023-04-02T11:29:36.175Z,54.95
2023-04-02T11:30:36.098Z,53.50
2023-04-02T11:31:36.128Z,52.05
2023-04-02T11:32:36.084Z,57.04
2023-04-02T11:33:38.333Z,53.33
2023-04-02T11:34:37.056Z,52.05
2023-04-02T11:35:36.336Z,53.66
2023-04-02T11:36:36.064Z,54.14
2023-04-02T11:37:36.048Z,54.30
2023-04-02T11:38:36.053Z,56.07
2023-04-02T11:39:36.011Z,53.50
2023-04-02T11:40:36.008Z,53.66
2023-04-02T11:41:35.988Z,54.46
2023-04-02T11:42:36.012Z,55.43
2023-04-02T11:43:36.096Z,56.07
2023-04-02T11:44:35.955Z,56.72
2023-04-02T11:45:46.428Z,55.59
2023-04-02T11:46:37.969Z,52.53
2023-04-02T11:47:35.950Z,53.01
2023-04-02T11:48:35.934Z,56.24
2023-04-02T11:49:35.899Z,56.40
2023-04-02T11:50:35.907Z,53.82
2023-04-02T11:51:35.906Z,53.50
2023-04-02T11:52:35.877Z,54.14
2023-04-02T11:53:35.871Z,54.14
2023-04-02T11:54:35.866Z,55.27
2023-04-02T11:55:36.078Z,56.24
2023-04-02T11:56:35.841Z,54.95
2023-04-02T11:57:35.983Z,55.43
2023-04-02T11:58:35.818Z,53.98
2023-04-02T11:59:35.798Z,57.20
2023-04-02T12:00:35.966Z,53.17
2023-04-02T12:01:35.787Z,51.24
2023-04-02T12:02:35.874Z,57.52
2023-04-02T12:03:35.745Z,52.21
2023-04-02T12:04:35.758Z,51.40
2023-04-02T12:05:35.893Z,52.69
2023-04-02T12:06:35.725Z,54.62
2023-04-02T12:07:35.724Z,53.82
2023-04-02T12:08:44.289Z,52.85
2023-04-02T12:09:36.689Z,53.33
2023-04-02T12:10:35.692Z,57.20
2023-04-02T12:11:35.676Z,55.43
2023-04-02T12:12:35.655Z,53.82
2023-04-02T12:13:35.670Z,54.95
2023-04-02T12:14:35.680Z,53.66
2023-04-02T12:15:35.774Z,56.24
2023-04-02T12:16:35.665Z,54.30
2023-04-02T12:17:35.623Z,54.95
2023-04-02T12:18:35.600Z,55.11
2023-04-02T12:19:35.604Z,55.91
2023-04-02T12:20:35.785Z,55.75
2023-04-02T12:21:35.584Z,54.30
2023-04-02T12:22:35.573Z,55.59
2023-04-02T12:23:35.562Z,54.79
2023-04-02T12:24:35.572Z,55.11
2023-04-02T12:25:35.536Z,53.33
2023-04-02T12:26:35.539Z,51.56
2023-04-02T12:27:35.533Z,54.46
2023-04-02T12:28:35.516Z,54.62
2023-04-02T12:29:35.480Z,52.85
2023-04-02T12:30:35.648Z,52.05
2023-04-02T12:31:35.485Z,53.17
2023-04-02T12:32:35.476Z,54.79
2023-04-02T12:33:35.441Z,53.33
2023-04-02T12:34:35.434Z,55.11
2023-04-02T12:35:35.504Z,54.79
2023-04-02T12:36:35.460Z,53.66
2023-04-02T12:37:35.403Z,55.11
2023-04-02T12:38:35.428Z,54.95
2023-04-02T12:39:35.385Z,53.17
2023-04-02T12:40:35.662Z,51.08
2023-04-02T12:41:35.376Z,55.91
2023-04-02T12:42:35.349Z,53.82
2023-04-02T12:43:35.358Z,53.82
2023-04-02T12:44:35.367Z,56.07
2023-04-02T12:45:35.338Z,54.14
2023-04-02T12:46:35.418Z,53.98
2023-04-02T12:47:35.359Z,54.95
2023-04-02T12:48:35.300Z,54.95
2023-04-02T12:49:35.269Z,54.14
2023-04-02T12:50:35.513Z,53.17
2023-04-02T12:51:35.264Z,55.59
2023-04-02T12:52:35.245Z,54.14
2023-04-02T12:53:35.227Z,55.43
2023-04-02T12:54:35.217Z,54.62